DKH1064 ZSPD-RKSI
Flight info
| Callsign | DKH1064 |
|---|---|
| Flight time | 1h 18m |
| Altitude | 37000 |
| Route | LAM84D LAMEN A593 SADLI Y590 ELGEP Y722 OLMEN OLMEN2E |
| Aircraft | A320/M-SDE3FGHIRWY/LB1 |
Departure
| Time | 2026-05-04 13:35 |
|---|---|
| Airport | Shanghai Pudong International Airport (ZSPD) |
Arrival
| Time | 2026-05-04 14:54 |
|---|---|
| Airport | Incheon International Airport (RKSI) |
| Time | Latitude | Longitude | Altitude | Speed | Heading |
|---|---|---|---|---|---|
| 2026-05-04 13:01 | 31.13660 | 121.80566 | 23 ft | 0 kts | 161° |
| 2026-05-04 13:20 | 31.13683 | 121.80558 | 23 ft | 4 kts | 162° |
| 2026-05-04 13:21 | 31.13709 | 121.80549 | 24 ft | 4 kts | 166° |
| 2026-05-04 13:21 | 31.13735 | 121.80543 | 25 ft | 4 kts | 180° |
| 2026-05-04 13:21 | 31.13758 | 121.80549 | 24 ft | 4 kts | 237° |
| 2026-05-04 13:21 | 31.13761 | 121.80554 | 24 ft | 0 kts | 252° |
| 2026-05-04 13:25 | 31.13760 | 121.80553 | 23 ft | 2 kts | 252° |
| 2026-05-04 13:25 | 31.13757 | 121.80478 | 23 ft | 12 kts | 291° |
| 2026-05-04 13:25 | 31.13804 | 121.80438 | 23 ft | 8 kts | 342° |
| 2026-05-04 13:25 | 31.13852 | 121.80420 | 23 ft | 6 kts | 342° |
| 2026-05-04 13:26 | 31.13891 | 121.80405 | 23 ft | 7 kts | 342° |
| 2026-05-04 13:26 | 31.13971 | 121.80375 | 23 ft | 17 kts | 342° |
| 2026-05-04 13:26 | 31.14049 | 121.80345 | 24 ft | 10 kts | 342° |
| 2026-05-04 13:26 | 31.14109 | 121.80322 | 23 ft | 9 kts | 342° |
| 2026-05-04 13:27 | 31.14190 | 121.80292 | 24 ft | 13 kts | 343° |
| 2026-05-04 13:27 | 31.14267 | 121.80273 | 23 ft | 9 kts | 7° |
| 2026-05-04 13:27 | 31.14301 | 121.80321 | 25 ft | 7 kts | 72° |
| 2026-05-04 13:27 | 31.14325 | 121.80408 | 23 ft | 17 kts | 72° |
| 2026-05-04 13:28 | 31.14364 | 121.80545 | 24 ft | 18 kts | 72° |
| 2026-05-04 13:28 | 31.14400 | 121.80680 | 23 ft | 17 kts | 72° |
| 2026-05-04 13:28 | 31.14433 | 121.80800 | 24 ft | 15 kts | 72° |
| 2026-05-04 13:28 | 31.14464 | 121.80911 | 24 ft | 17 kts | 72° |
| 2026-05-04 13:29 | 31.14511 | 121.81075 | 23 ft | 23 kts | 73° |
| 2026-05-04 13:29 | 31.14561 | 121.81262 | 25 ft | 25 kts | 72° |
| 2026-05-04 13:29 | 31.14602 | 121.81406 | 23 ft | 9 kts | 68° |
| 2026-05-04 13:29 | 31.14646 | 121.81428 | 23 ft | 7 kts | 351° |
| 2026-05-04 13:30 | 31.14698 | 121.81408 | 24 ft | 14 kts | 341° |
| 2026-05-04 13:30 | 31.14858 | 121.81345 | 23 ft | 28 kts | 342° |
| 2026-05-04 13:30 | 31.15021 | 121.81285 | 23 ft | 25 kts | 342° |
| 2026-05-04 13:30 | 31.15075 | 121.81265 | 23 ft | 25 kts | 342° |
| 2026-05-04 13:31 | 31.15476 | 121.81113 | 22 ft | 8 kts | 342° |
| 2026-05-04 13:31 | 31.15526 | 121.81094 | 22 ft | 7 kts | 342° |
| 2026-05-04 13:32 | 31.15568 | 121.81079 | 22 ft | 6 kts | 342° |
| 2026-05-04 13:32 | 31.15601 | 121.81067 | 22 ft | 4 kts | 342° |
| 2026-05-04 13:32 | 31.15626 | 121.81057 | 22 ft | 4 kts | 342° |
| 2026-05-04 13:32 | 31.15650 | 121.81048 | 22 ft | 5 kts | 342° |
| 2026-05-04 13:33 | 31.15714 | 121.81025 | 22 ft | 11 kts | 343° |
| 2026-05-04 13:33 | 31.15758 | 121.81060 | 22 ft | 8 kts | 74° |
| 2026-05-04 13:33 | 31.15776 | 121.81134 | 22 ft | 13 kts | 74° |
| 2026-05-04 13:33 | 31.15767 | 121.81223 | 21 ft | 8 kts | 122° |
| 2026-05-04 13:34 | 31.15737 | 121.81242 | 21 ft | 4 kts | 163° |
| 2026-05-04 13:34 | 31.15682 | 121.81262 | 22 ft | 27 kts | 162° |
| 2026-05-04 13:34 | 31.15257 | 121.81420 | 22 ft | 99 kts | 162° |
| 2026-05-04 13:34 | 31.14395 | 121.81745 | 23 ft | 155 kts | 161° |
| 2026-05-04 13:35 | 31.13265 | 121.82178 | 153 ft | 189 kts | 162° |
| 2026-05-04 13:35 | 31.10743 | 121.83157 | 1634 ft | 189 kts | 165° |
| 2026-05-04 13:35 | 31.09484 | 121.83733 | 2219 ft | 207 kts | 153° |
| 2026-05-04 13:36 | 31.08232 | 121.84749 | 2617 ft | 230 kts | 146° |
| 2026-05-04 13:36 | 31.06866 | 121.85903 | 2947 ft | 255 kts | 145° |
| 2026-05-04 13:36 | 31.05375 | 121.87166 | 3480 ft | 273 kts | 144° |
| 2026-05-04 13:36 | 31.03820 | 121.88484 | 4322 ft | 279 kts | 144° |
| 2026-05-04 13:37 | 31.02231 | 121.89833 | 5150 ft | 285 kts | 144° |
| 2026-05-04 13:37 | 31.00643 | 121.91260 | 5930 ft | 291 kts | 140° |
| 2026-05-04 13:37 | 30.99093 | 121.92825 | 6706 ft | 298 kts | 137° |
| 2026-05-04 13:37 | 30.98071 | 121.93906 | 7211 ft | 301 kts | 136° |
| 2026-05-04 13:38 | 30.96002 | 121.96140 | 8310 ft | 305 kts | 136° |
| 2026-05-04 13:38 | 30.94523 | 121.97908 | 9146 ft | 306 kts | 122° |
| 2026-05-04 13:38 | 30.93699 | 122.00166 | 9950 ft | 303 kts | 96° |
| 2026-05-04 13:38 | 30.93769 | 122.02573 | 10657 ft | 299 kts | 72° |
| 2026-05-04 13:39 | 30.94377 | 122.04984 | 10907 ft | 321 kts | 69° |
| 2026-05-04 13:39 | 30.95095 | 122.07543 | 11099 ft | 344 kts | 68° |
| 2026-05-04 13:39 | 30.95885 | 122.10275 | 11243 ft | 367 kts | 68° |
| 2026-05-04 13:39 | 30.96713 | 122.13148 | 11652 ft | 378 kts | 69° |
| 2026-05-04 13:40 | 30.97409 | 122.15600 | 12171 ft | 384 kts | 69° |
| 2026-05-04 13:40 | 30.97658 | 122.16485 | 12341 ft | 385 kts | 69° |
| 2026-05-04 13:40 | 30.98493 | 122.19473 | 12973 ft | 391 kts | 69° |
| 2026-05-04 13:40 | 30.99332 | 122.22507 | 13576 ft | 396 kts | 70° |
| 2026-05-04 13:41 | 30.99919 | 122.25664 | 14137 ft | 404 kts | 82° |
| 2026-05-04 13:41 | 31.00021 | 122.28971 | 14666 ft | 410 kts | 89° |
| 2026-05-04 13:41 | 31.00010 | 122.32300 | 15207 ft | 414 kts | 89° |
| 2026-05-04 13:42 | 31.00003 | 122.39085 | 16251 ft | 423 kts | 89° |
| 2026-05-04 13:42 | 31.00002 | 122.42521 | 16762 ft | 427 kts | 89° |
| 2026-05-04 13:42 | 31.00005 | 122.46002 | 17268 ft | 431 kts | 89° |
| 2026-05-04 13:42 | 31.00012 | 122.49511 | 17771 ft | 435 kts | 89° |
| 2026-05-04 13:43 | 31.00022 | 122.53048 | 18273 ft | 439 kts | 89° |
| 2026-05-04 13:43 | 31.00030 | 122.56618 | 18708 ft | 443 kts | 89° |
| 2026-05-04 13:43 | 31.00034 | 122.60224 | 19094 ft | 447 kts | 89° |
| 2026-05-04 13:43 | 31.00038 | 122.63818 | 19450 ft | 453 kts | 89° |
| 2026-05-04 13:44 | 31.00040 | 122.67517 | 19776 ft | 459 kts | 90° |
| 2026-05-04 13:44 | 31.00040 | 122.71247 | 20150 ft | 464 kts | 90° |
| 2026-05-04 13:44 | 31.00040 | 122.75041 | 20519 ft | 468 kts | 90° |
| 2026-05-04 13:44 | 31.00035 | 122.78845 | 20887 ft | 473 kts | 90° |
| 2026-05-04 13:45 | 31.00027 | 122.82699 | 21252 ft | 477 kts | 90° |
| 2026-05-04 13:45 | 31.00022 | 122.86580 | 21611 ft | 481 kts | 91° |
| 2026-05-04 13:45 | 31.00020 | 122.90498 | 21950 ft | 486 kts | 91° |
| 2026-05-04 13:45 | 31.00156 | 122.94445 | 22282 ft | 491 kts | 84° |
| 2026-05-04 13:46 | 31.00791 | 122.98383 | 22611 ft | 496 kts | 74° |
| 2026-05-04 13:46 | 31.01510 | 123.00964 | 22832 ft | 498 kts | 68° |
| 2026-05-04 13:46 | 31.02974 | 123.04580 | 23141 ft | 500 kts | 58° |
| 2026-05-04 13:46 | 31.04901 | 123.07970 | 23443 ft | 502 kts | 51° |
| 2026-05-04 13:47 | 31.06951 | 123.11293 | 23734 ft | 507 kts | 51° |
| 2026-05-04 13:47 | 31.09016 | 123.14644 | 24031 ft | 510 kts | 51° |
| 2026-05-04 13:47 | 31.11083 | 123.18014 | 24344 ft | 512 kts | 51° |
| 2026-05-04 13:47 | 31.13161 | 123.21413 | 24628 ft | 515 kts | 52° |
| 2026-05-04 13:48 | 31.15244 | 123.24832 | 24903 ft | 518 kts | 52° |
| 2026-05-04 13:48 | 31.17337 | 123.28267 | 25190 ft | 521 kts | 52° |
| 2026-05-04 13:48 | 31.19442 | 123.31723 | 25466 ft | 524 kts | 52° |
| 2026-05-04 13:48 | 31.21563 | 123.35206 | 25747 ft | 526 kts | 52° |
| 2026-05-04 13:49 | 31.23694 | 123.38698 | 26018 ft | 529 kts | 52° |
| 2026-05-04 13:49 | 31.30310 | 123.49561 | 26829 ft | 536 kts | 52° |
| 2026-05-04 13:50 | 31.32473 | 123.53133 | 27072 ft | 539 kts | 52° |
| 2026-05-04 13:50 | 31.34649 | 123.56725 | 27319 ft | 541 kts | 52° |
| 2026-05-04 13:50 | 31.36836 | 123.60317 | 27550 ft | 544 kts | 52° |
| 2026-05-04 13:50 | 31.39042 | 123.63929 | 27799 ft | 546 kts | 52° |
| 2026-05-04 13:51 | 31.41224 | 123.67492 | 28179 ft | 546 kts | 52° |
| 2026-05-04 13:51 | 31.43442 | 123.71108 | 28460 ft | 547 kts | 52° |
| 2026-05-04 13:51 | 31.45658 | 123.74734 | 28753 ft | 549 kts | 52° |
| 2026-05-04 13:51 | 31.47879 | 123.78377 | 29063 ft | 550 kts | 52° |
| 2026-05-04 13:52 | 31.52318 | 123.85681 | 29702 ft | 551 kts | 53° |
| 2026-05-04 13:52 | 31.54543 | 123.89342 | 30019 ft | 552 kts | 53° |
| 2026-05-04 13:52 | 31.56767 | 123.93001 | 30322 ft | 552 kts | 53° |
| 2026-05-04 13:53 | 31.58950 | 123.96718 | 30568 ft | 553 kts | 58° |
| 2026-05-04 13:53 | 31.60754 | 124.00712 | 30846 ft | 554 kts | 67° |
| 2026-05-04 13:53 | 31.62090 | 124.04939 | 31120 ft | 552 kts | 76° |
| 2026-05-04 13:54 | 31.64043 | 124.13655 | 31663 ft | 552 kts | 78° |
| 2026-05-04 13:54 | 31.65017 | 124.18018 | 31938 ft | 553 kts | 78° |
| 2026-05-04 13:54 | 31.66975 | 124.26743 | 32459 ft | 554 kts | 78° |
| 2026-05-04 13:55 | 31.67956 | 124.31127 | 32771 ft | 554 kts | 78° |
| 2026-05-04 13:55 | 31.69899 | 124.39897 | 33275 ft | 556 kts | 78° |
| 2026-05-04 13:55 | 31.70862 | 124.44292 | 33543 ft | 557 kts | 78° |
| 2026-05-04 13:56 | 31.71826 | 124.48700 | 33805 ft | 557 kts | 78° |
| 2026-05-04 13:56 | 31.72778 | 124.53049 | 34084 ft | 557 kts | 78° |
| 2026-05-04 13:56 | 31.74713 | 124.61869 | 34566 ft | 558 kts | 78° |
| 2026-05-04 13:57 | 31.75685 | 124.66290 | 34786 ft | 558 kts | 78° |
| 2026-05-04 13:57 | 31.76653 | 124.70698 | 34999 ft | 559 kts | 78° |
| 2026-05-04 13:58 | 31.79547 | 124.84040 | 35540 ft | 563 kts | 78° |
| 2026-05-04 13:58 | 31.81471 | 124.92981 | 35926 ft | 564 kts | 81° |
| 2026-05-04 13:58 | 31.82105 | 124.97509 | 36105 ft | 559 kts | 89° |
| 2026-05-04 13:59 | 31.82250 | 125.02052 | 36260 ft | 554 kts | 98° |
| 2026-05-04 13:59 | 31.81922 | 125.06524 | 36416 ft | 546 kts | 107° |
| 2026-05-04 13:59 | 31.80514 | 125.15257 | 36744 ft | 544 kts | 109° |
| 2026-05-04 14:00 | 31.79796 | 125.19624 | 36914 ft | 545 kts | 109° |
| 2026-05-04 14:00 | 31.78359 | 125.28385 | 37142 ft | 548 kts | 109° |
| 2026-05-04 14:00 | 31.77636 | 125.32782 | 37153 ft | 550 kts | 109° |
| 2026-05-04 14:01 | 31.76177 | 125.41623 | 37153 ft | 551 kts | 109° |
| 2026-05-04 14:02 | 31.73971 | 125.54879 | 37152 ft | 551 kts | 109° |
| 2026-05-04 14:02 | 31.72848 | 125.63790 | 37153 ft | 563 kts | 98° |
| 2026-05-04 14:03 | 31.73558 | 125.73023 | 37149 ft | 574 kts | 79° |
| 2026-05-04 14:03 | 31.75829 | 125.82036 | 37123 ft | 576 kts | 66° |
| 2026-05-04 14:04 | 31.82684 | 125.93351 | 37134 ft | 561 kts | 34° |
| 2026-05-04 14:04 | 31.85758 | 125.96099 | 37175 ft | 550 kts | 23° |
| 2026-05-04 14:04 | 31.89054 | 125.98256 | 37150 ft | 537 kts | 14° |
| 2026-05-04 14:05 | 31.99394 | 126.02786 | 37133 ft | 528 kts | 8° |
| 2026-05-04 14:06 | 32.06308 | 126.05710 | 37162 ft | 528 kts | 8° |
| 2026-05-04 14:06 | 32.13229 | 126.08642 | 37151 ft | 528 kts | 8° |
| 2026-05-04 14:07 | 32.20142 | 126.11584 | 37142 ft | 528 kts | 8° |
| 2026-05-04 14:07 | 32.27056 | 126.14524 | 37125 ft | 527 kts | 8° |
| 2026-05-04 14:08 | 32.33959 | 126.17452 | 37118 ft | 527 kts | 8° |
| 2026-05-04 14:08 | 32.40858 | 126.20384 | 37165 ft | 528 kts | 8° |
| 2026-05-04 14:09 | 32.51193 | 126.24803 | 37132 ft | 529 kts | 8° |
| 2026-05-04 14:10 | 32.61583 | 126.29251 | 37168 ft | 529 kts | 8° |
| 2026-05-04 14:10 | 32.68502 | 126.32227 | 37150 ft | 529 kts | 8° |
| 2026-05-04 14:11 | 32.75434 | 126.35217 | 37136 ft | 530 kts | 8° |
| 2026-05-04 14:11 | 32.85813 | 126.39695 | 37112 ft | 529 kts | 8° |
| 2026-05-04 14:12 | 32.92726 | 126.42680 | 37114 ft | 529 kts | 8° |
| 2026-05-04 14:13 | 33.00831 | 126.46178 | 37121 ft | 530 kts | 8° |
| 2026-05-04 14:13 | 33.09368 | 126.49858 | 37128 ft | 530 kts | 8° |
| 2026-05-04 14:14 | 33.16312 | 126.52846 | 37108 ft | 530 kts | 8° |
| 2026-05-04 14:14 | 33.26715 | 126.57324 | 37116 ft | 530 kts | 8° |
| 2026-05-04 14:15 | 33.40582 | 126.63325 | 37134 ft | 530 kts | 8° |
| 2026-05-04 14:16 | 33.50974 | 126.67856 | 37112 ft | 530 kts | 8° |
| 2026-05-04 14:17 | 33.57934 | 126.70072 | 37102 ft | 501 kts | 352° |
| 2026-05-04 14:17 | 33.61362 | 126.70449 | 37094 ft | 494 kts | 350° |
| 2026-05-04 14:18 | 33.71664 | 126.71505 | 37085 ft | 496 kts | 350° |
| 2026-05-04 14:19 | 33.85421 | 126.72961 | 37113 ft | 496 kts | 350° |
| 2026-05-04 14:19 | 33.92296 | 126.73694 | 37108 ft | 495 kts | 350° |
| 2026-05-04 14:20 | 33.99153 | 126.74416 | 37093 ft | 493 kts | 349° |
| 2026-05-04 14:20 | 34.05935 | 126.75127 | 37061 ft | 493 kts | 349° |
| 2026-05-04 14:21 | 34.16198 | 126.76193 | 37118 ft | 494 kts | 349° |
| 2026-05-04 14:21 | 34.23048 | 126.76914 | 37100 ft | 493 kts | 349° |
| 2026-05-04 14:22 | 34.29877 | 126.77637 | 37091 ft | 493 kts | 349° |
| 2026-05-04 14:22 | 34.36702 | 126.78358 | 37099 ft | 492 kts | 349° |
| 2026-05-04 14:23 | 34.46910 | 126.79451 | 37062 ft | 491 kts | 349° |
| 2026-05-04 14:24 | 34.53713 | 126.80172 | 37061 ft | 491 kts | 349° |
| 2026-05-04 14:24 | 34.60522 | 126.80885 | 37064 ft | 489 kts | 350° |
| 2026-05-04 14:25 | 34.67295 | 126.81614 | 37063 ft | 489 kts | 350° |
| 2026-05-04 14:25 | 34.77425 | 126.82698 | 37096 ft | 489 kts | 350° |
| 2026-05-04 14:26 | 34.84247 | 126.83429 | 37079 ft | 488 kts | 350° |
| 2026-05-04 14:26 | 34.91011 | 126.84162 | 37068 ft | 488 kts | 350° |
| 2026-05-04 14:27 | 34.97771 | 126.84898 | 37058 ft | 488 kts | 350° |
| 2026-05-04 14:27 | 35.04529 | 126.85630 | 37058 ft | 488 kts | 350° |
| 2026-05-04 14:28 | 35.11260 | 126.86358 | 37058 ft | 488 kts | 350° |
| 2026-05-04 14:28 | 35.18024 | 126.87102 | 37040 ft | 485 kts | 350° |
| 2026-05-04 14:29 | 35.31386 | 126.88560 | 37035 ft | 482 kts | 350° |
| 2026-05-04 14:30 | 35.38069 | 126.89276 | 37070 ft | 482 kts | 350° |
| 2026-05-04 14:31 | 35.48089 | 126.90365 | 37066 ft | 482 kts | 351° |
| 2026-05-04 14:32 | 35.61370 | 126.91823 | 37024 ft | 474 kts | 351° |
| 2026-05-04 14:32 | 35.67946 | 126.92545 | 37021 ft | 474 kts | 351° |
| 2026-05-04 14:33 | 35.74525 | 126.93257 | 37058 ft | 475 kts | 352° |
| 2026-05-04 14:33 | 35.81116 | 126.93982 | 37054 ft | 475 kts | 352° |
| 2026-05-04 14:34 | 35.87698 | 126.94711 | 37047 ft | 475 kts | 352° |
| 2026-05-04 14:34 | 35.94277 | 126.95444 | 37058 ft | 474 kts | 352° |
| 2026-05-04 14:35 | 36.00799 | 126.96169 | 37011 ft | 468 kts | 352° |
| 2026-05-04 14:35 | 36.07294 | 126.96884 | 37008 ft | 469 kts | 352° |
| 2026-05-04 14:36 | 36.13789 | 126.97590 | 37048 ft | 469 kts | 353° |
| 2026-05-04 14:36 | 36.20281 | 126.98302 | 37029 ft | 468 kts | 353° |
| 2026-05-04 14:37 | 36.26754 | 126.99035 | 37012 ft | 467 kts | 353° |
| 2026-05-04 14:37 | 36.33238 | 126.99769 | 37022 ft | 467 kts | 353° |
| 2026-05-04 14:38 | 36.39650 | 127.00339 | 37002 ft | 456 kts | 346° |
| 2026-05-04 14:38 | 36.42854 | 127.00212 | 36703 ft | 458 kts | 346° |
| 2026-05-04 14:38 | 36.46014 | 127.00080 | 35856 ft | 459 kts | 346° |
| 2026-05-04 14:38 | 36.49190 | 126.99966 | 34902 ft | 455 kts | 346° |
| 2026-05-04 14:39 | 36.52341 | 126.99862 | 34028 ft | 452 kts | 347° |
| 2026-05-04 14:39 | 36.55479 | 126.99754 | 32964 ft | 449 kts | 348° |
| 2026-05-04 14:39 | 36.58598 | 126.99639 | 31937 ft | 446 kts | 348° |
| 2026-05-04 14:40 | 36.64751 | 126.99421 | 29935 ft | 439 kts | 351° |
| 2026-05-04 14:40 | 36.67780 | 126.99321 | 28780 ft | 429 kts | 351° |
| 2026-05-04 14:40 | 36.70727 | 126.99214 | 27680 ft | 417 kts | 350° |
| 2026-05-04 14:40 | 36.73538 | 126.98760 | 26515 ft | 400 kts | 343° |
| 2026-05-04 14:41 | 36.76171 | 126.97797 | 25306 ft | 388 kts | 336° |
| 2026-05-04 14:41 | 36.78626 | 126.96505 | 24117 ft | 380 kts | 334° |
| 2026-05-04 14:41 | 36.83425 | 126.93961 | 21512 ft | 368 kts | 335° |
| 2026-05-04 14:42 | 36.88050 | 126.91459 | 19011 ft | 358 kts | 334° |
| 2026-05-04 14:42 | 36.90292 | 126.90156 | 17759 ft | 353 kts | 333° |
| 2026-05-04 14:42 | 36.92502 | 126.88842 | 16617 ft | 346 kts | 333° |
| 2026-05-04 14:43 | 36.94646 | 126.87562 | 15666 ft | 337 kts | 333° |
| 2026-05-04 14:43 | 36.96726 | 126.86324 | 14843 ft | 327 kts | 333° |
| 2026-05-04 14:43 | 36.98757 | 126.85121 | 14038 ft | 319 kts | 333° |
| 2026-05-04 14:43 | 37.00744 | 126.83949 | 13204 ft | 312 kts | 333° |
| 2026-05-04 14:44 | 37.02686 | 126.82806 | 12372 ft | 306 kts | 333° |
| 2026-05-04 14:44 | 37.04649 | 126.81654 | 11518 ft | 300 kts | 333° |
| 2026-05-04 14:44 | 37.06522 | 126.80559 | 10706 ft | 295 kts | 333° |
| 2026-05-04 14:44 | 37.08333 | 126.79418 | 9919 ft | 289 kts | 326° |
| 2026-05-04 14:45 | 37.09967 | 126.77987 | 9059 ft | 285 kts | 323° |
| 2026-05-04 14:45 | 37.11570 | 126.76572 | 8351 ft | 277 kts | 324° |
| 2026-05-04 14:45 | 37.13124 | 126.75209 | 7735 ft | 268 kts | 324° |
| 2026-05-04 14:45 | 37.14634 | 126.73884 | 7117 ft | 261 kts | 324° |
| 2026-05-04 14:46 | 37.16069 | 126.72624 | 6905 ft | 241 kts | 324° |
| 2026-05-04 14:46 | 37.16949 | 126.71852 | 6875 ft | 224 kts | 324° |
| 2026-05-04 14:46 | 37.18563 | 126.70434 | 6480 ft | 209 kts | 324° |
| 2026-05-04 14:46 | 37.19358 | 126.69734 | 6190 ft | 206 kts | 324° |
| 2026-05-04 14:47 | 37.20887 | 126.68385 | 5618 ft | 203 kts | 324° |
| 2026-05-04 14:47 | 37.22038 | 126.67370 | 5181 ft | 201 kts | 324° |
| 2026-05-04 14:47 | 37.23180 | 126.66362 | 4737 ft | 200 kts | 324° |
| 2026-05-04 14:47 | 37.24314 | 126.65361 | 4304 ft | 199 kts | 324° |
| 2026-05-04 14:48 | 37.25078 | 126.64686 | 4011 ft | 198 kts | 324° |
| 2026-05-04 14:48 | 37.26195 | 126.63698 | 3592 ft | 201 kts | 324° |
| 2026-05-04 14:48 | 37.27333 | 126.62692 | 3374 ft | 195 kts | 325° |
| 2026-05-04 14:48 | 37.28425 | 126.61727 | 3154 ft | 194 kts | 325° |
| 2026-05-04 14:49 | 37.29528 | 126.60752 | 2914 ft | 194 kts | 324° |
| 2026-05-04 14:49 | 37.30272 | 126.60094 | 2763 ft | 194 kts | 324° |
| 2026-05-04 14:50 | 37.34216 | 126.56601 | 2489 ft | 175 kts | 324° |
| 2026-05-04 14:50 | 37.35181 | 126.55744 | 2465 ft | 167 kts | 324° |
| 2026-05-04 14:50 | 37.35817 | 126.55181 | 2381 ft | 165 kts | 324° |
| 2026-05-04 14:50 | 37.37050 | 126.54088 | 2124 ft | 164 kts | 324° |
| 2026-05-04 14:51 | 37.37669 | 126.53540 | 1985 ft | 164 kts | 324° |
| 2026-05-04 14:51 | 37.38601 | 126.52714 | 1766 ft | 163 kts | 324° |
| 2026-05-04 14:51 | 37.39508 | 126.51910 | 1553 ft | 155 kts | 323° |
| 2026-05-04 14:51 | 37.40352 | 126.51162 | 1374 ft | 141 kts | 324° |
| 2026-05-04 14:52 | 37.41114 | 126.50486 | 1166 ft | 130 kts | 323° |
| 2026-05-04 14:52 | 37.41841 | 126.49841 | 990 ft | 126 kts | 323° |
| 2026-05-04 14:52 | 37.42563 | 126.49200 | 808 ft | 128 kts | 322° |
| 2026-05-04 14:52 | 37.43297 | 126.48547 | 639 ft | 131 kts | 321° |
| 2026-05-04 14:53 | 37.44045 | 126.47884 | 462 ft | 132 kts | 322° |
| 2026-05-04 14:53 | 37.44791 | 126.47219 | 281 ft | 132 kts | 323° |
| 2026-05-04 14:53 | 37.45541 | 126.46552 | 95 ft | 131 kts | 322° |
| 2026-05-04 14:53 | 37.46254 | 126.45911 | 32 ft | 109 kts | 321° |
| 2026-05-04 14:54 | 37.46952 | 126.45296 | 33 ft | 40 kts | 324° |
| 2026-05-04 14:54 | 37.47171 | 126.45100 | 34 ft | 37 kts | 324° |
| 2026-05-04 14:54 | 37.47370 | 126.44905 | 30 ft | 36 kts | 313° |
| 2026-05-04 14:55 | 37.47476 | 126.44699 | 31 ft | 19 kts | 296° |
| 2026-05-04 14:55 | 37.47526 | 126.44565 | 32 ft | 13 kts | 295° |
| 2026-05-04 14:55 | 37.47587 | 126.44468 | 33 ft | 15 kts | 320° |
| 2026-05-04 14:55 | 37.47676 | 126.44392 | 33 ft | 16 kts | 323° |
| 2026-05-04 14:56 | 37.47771 | 126.44303 | 33 ft | 18 kts | 323° |
| 2026-05-04 14:56 | 37.47790 | 126.44225 | 33 ft | 10 kts | 231° |
| 2026-05-04 14:56 | 37.47745 | 126.44153 | 34 ft | 11 kts | 232° |
| 2026-05-04 14:56 | 37.47695 | 126.44071 | 34 ft | 13 kts | 233° |
| 2026-05-04 14:57 | 37.47639 | 126.43974 | 34 ft | 14 kts | 236° |
| 2026-05-04 14:57 | 37.47575 | 126.43905 | 33 ft | 12 kts | 199° |
| 2026-05-04 14:57 | 37.47511 | 126.43850 | 31 ft | 8 kts | 223° |
| 2026-05-04 14:57 | 37.47466 | 126.43850 | 32 ft | 6 kts | 156° |
| 2026-05-04 14:58 | 37.47434 | 126.43879 | 31 ft | 5 kts | 143° |
| 2026-05-04 14:58 | 37.47407 | 126.43904 | 32 ft | 4 kts | 143° |
| 2026-05-04 14:58 | 37.47385 | 126.43925 | 32 ft | 3 kts | 143° |
| 2026-05-04 14:58 | 37.47356 | 126.43952 | 32 ft | 9 kts | 143° |
| 2026-05-04 14:59 | 37.47289 | 126.44012 | 32 ft | 15 kts | 144° |
| 2026-05-04 14:59 | 37.47183 | 126.44110 | 32 ft | 17 kts | 147° |
| 2026-05-04 14:59 | 37.47088 | 126.44086 | 32 ft | 5 kts | 233° |
| 2026-05-04 15:00 | 37.47072 | 126.44059 | 32 ft | 3 kts | 233° |
| 2026-05-04 15:00 | 37.47062 | 126.44042 | 32 ft | 3 kts | 234° |
| 2026-05-04 15:00 | 37.47025 | 126.44001 | 31 ft | 8 kts | 198° |
| 2026-05-04 15:01 | 37.46952 | 126.44061 | 32 ft | 5 kts | 132° |
| 2026-05-04 15:01 | 37.46929 | 126.44082 | 31 ft | 2 kts | 176° |
| 2026-05-04 15:01 | 37.46912 | 126.44064 | 32 ft | 9 kts | 225° |
| 2026-05-04 15:01 | 37.46872 | 126.44023 | 31 ft | 5 kts | 218° |
| 2026-05-04 15:02 | 37.46866 | 126.44017 | 32 ft | 4 kts | 218° |
| 2026-05-04 15:02 | 37.46850 | 126.44001 | 31 ft | 2 kts | 218° |
| 2026-05-04 15:02 | 37.46844 | 126.43996 | 31 ft | 0 kts | 218° |
| 2026-05-04 15:06 | 37.46845 | 126.43996 | 31 ft | 0 kts | 218° |